Time;durP1;ratioP1;P1;durP2;ratioP2;P2;SDS_P1;SDS_P2;PMS_P1;PMS_P2;Temp;Humidity;BMP_temperature;BMP_pressure;BME280_temperature;BME280_humidity;BME280_pressure;Samples;Min_cycle;Max_cycle;Signal;HPM_P1;HPM_P2
2022/12/01 00:00:02;;;;;;;21.23;14.43;;;22.10;36.40;;;;;;7711578;22;84790;-60
2022/12/01 00:03:05;;;;;;;21.35;14.43;;;22.10;36.40;;;;;;7707943;22;82880;-61
2022/12/01 00:06:05;;;;;;;21.17;14.82;;;22.10;36.40;;;;;;7714665;22;83112;-61
2022/12/01 00:12:25;;;;;;;21.05;14.23;;;22.10;36.40;;;;;;7711122;22;83208;-64
2022/12/01 00:15:26;;;;;;;21.75;15.18;;;22.10;36.50;;;;;;7711390;22;83114;-63
2022/12/01 00:18:26;;;;;;;19.65;14.18;;;22.10;36.50;;;;;;7712878;22;83521;-64
2022/12/01 00:21:26;;;;;;;19.98;14.68;;;22.10;36.40;;;;;;7711904;22;83202;-61
2022/12/01 00:24:27;;;;;;;20.13;14.30;;;22.00;36.50;;;;;;7683925;22;83452;-63
2022/12/01 00:27:27;;;;;;;22.38;15.02;;;22.00;36.40;;;;;;7709928;22;84432;-62
2022/12/01 00:30:28;;;;;;;22.67;14.38;;;22.00;36.50;;;;;;7710887;22;83446;-62
2022/12/01 00:33:28;;;;;;;23.13;14.88;;;22.00;36.40;;;;;;7713409;22;83212;-63
2022/12/01 00:36:29;;;;;;;20.70;13.52;;;22.00;36.50;;;;;;7709163;22;83374;-62
2022/12/01 00:39:29;;;;;;;20.77;14.73;;;22.00;36.50;;;;;;7712188;22;82472;-62
2022/12/01 00:42:30;;;;;;;21.05;14.85;;;22.00;36.40;;;;;;7712001;22;83201;-63
2022/12/01 00:45:30;;;;;;;20.58;14.68;;;22.00;36.40;;;;;;7712420;22;83046;-65
2022/12/01 00:48:31;;;;;;;19.48;14.23;;;22.00;36.50;;;;;;7711526;22;83878;-64
2022/12/01 00:51:31;;;;;;;20.23;14.73;;;22.00;36.50;;;;;;7710257;22;82716;-64
2022/12/01 00:54:32;;;;;;;21.92;15.13;;;22.00;36.50;;;;;;7685529;22;84274;-65
2022/12/01 00:57:33;;;;;;;21.23;15.50;;;22.00;36.50;;;;;;7708787;22;82864;-64
2022/12/01 01:00:33;;;;;;;19.70;13.85;;;21.90;36.40;;;;;;7711433;22;90865;-64
2022/12/01 01:03:34;;;;;;;20.73;14.40;;;22.00;36.50;;;;;;7711280;22;83831;-58
2022/12/01 01:06:34;;;;;;;21.98;15.00;;;22.00;36.50;;;;;;7713759;22;83485;-58
2022/12/01 01:09:35;;;;;;;21.20;14.45;;;21.90;36.40;;;;;;7707618;22;83462;-58
2022/12/01 01:12:37;;;;;;;21.25;14.60;;;21.90;36.40;;;;;;7709189;22;83787;-58
2022/12/01 01:15:37;;;;;;;20.85;14.55;;;21.90;36.40;;;;;;7709077;22;83278;-57
2022/12/01 01:18:38;;;;;;;23.13;14.77;;;21.90;36.50;;;;;;7712364;22;83120;-57
2022/12/01 01:21:38;;;;;;;20.90;14.40;;;21.90;36.50;;;;;;7695995;22;88748;-57
2022/12/01 01:24:39;;;;;;;22.00;14.48;;;21.90;36.70;;;;;;7672582;22;84026;-57
2022/12/01 01:27:39;;;;;;;19.60;13.63;;;21.90;36.70;;;;;;7674656;22;83318;-57
2022/12/01 01:30:40;;;;;;;20.25;13.77;;;22.00;36.90;;;;;;7673542;22;84471;-57
2022/12/01 01:33:40;;;;;;;18.73;13.68;;;21.90;36.80;;;;;;7673344;22;83016;-55
2022/12/01 01:36:41;;;;;;;22.05;14.57;;;21.90;36.90;;;;;;7673850;22;83572;-57
2022/12/01 01:39:41;;;;;;;18.98;12.95;;;21.90;37.00;;;;;;7676029;22;83054;-63
2022/12/01 01:42:42;;;;;;;17.85;13.00;;;21.90;36.90;;;;;;7675141;22;82908;-63
2022/12/01 01:45:42;;;;;;;21.15;14.35;;;22.00;37.20;;;;;;7671089;22;82966;-63
2022/12/01 01:48:43;;;;;;;19.05;13.70;;;22.00;37.10;;;;;;7673180;22;83446;-63
2022/12/01 01:51:43;;;;;;;17.98;13.07;;;21.90;37.10;;;;;;7675177;22;82742;-63
2022/12/01 01:54:44;;;;;;;17.98;12.25;;;22.00;37.20;;;;;;7675402;22;82922;-63
2022/12/01 01:57:44;;;;;;;20.25;13.60;;;21.90;37.20;;;;;;7673095;22;84377;-63
2022/12/01 02:00:45;;;;;;;19.98;12.98;;;21.90;37.20;;;;;;7673336;22;84154;-60
2022/12/01 02:03:45;;;;;;;18.30;13.55;;;21.90;37.20;;;;;;7675001;22;83195;-62
2022/12/01 02:06:46;;;;;;;19.83;13.23;;;21.90;37.20;;;;;;7674613;22;83393;-64
2022/12/01 02:09:46;;;;;;;18.70;12.85;;;21.90;37.20;;;;;;7672692;22;83383;-64
2022/12/01 02:12:47;;;;;;;18.85;13.02;;;22.00;37.30;;;;;;7645913;22;85855;-62
2022/12/01 02:15:47;;;;;;;16.80;12.48;;;21.90;37.20;;;;;;7672564;22;83382;-63
2022/12/01 02:18:48;;;;;;;20.35;13.85;;;21.90;37.20;;;;;;7675282;22;82998;-63
2022/12/01 02:21:48;;;;;;;20.27;14.02;;;21.90;37.10;;;;;;7676300;22;83910;-63
2022/12/01 02:24:49;;;;;;;15.77;11.93;;;21.90;37.20;;;;;;7675094;22;83011;-63
2022/12/01 02:27:49;;;;;;;18.40;13.18;;;21.90;37.20;;;;;;7675160;22;82873;-63
2022/12/01 02:30:49;;;;;;;19.63;13.25;;;21.90;37.20;;;;;;7673587;22;84625;-63
2022/12/01 02:33:50;;;;;;;18.77;13.57;;;21.90;37.10;;;;;;7673935;22;83957;-59
2022/12/01 02:36:50;;;;;;;19.98;14.10;;;21.90;37.10;;;;;;7675272;22;83028;-59
2022/12/01 02:39:51;;;;;;;20.10;13.48;;;21.90;37.00;;;;;;7671631;22;82977;-60
2022/12/01 02:42:58;;;;;;;20.27;13.82;;;21.90;37.70;;;;;;7674137;22;82926;-60
2022/12/01 02:45:59;;;;;;;18.67;12.95;;;21.90;37.00;;;;;;7675780;22;83163;-60
2022/12/01 02:48:59;;;;;;;22.63;14.63;;;21.90;37.00;;;;;;7645771;22;84441;-59
2022/12/01 02:52:00;;;;;;;20.40;13.77;;;21.90;37.00;;;;;;7671425;22;83435;-63
2022/12/01 02:55:00;;;;;;;21.85;14.63;;;21.90;36.90;;;;;;7676647;22;83380;-63
2022/12/01 02:58:01;;;;;;;19.92;13.52;;;21.90;36.80;;;;;;7673989;22;84318;-64
2022/12/01 03:01:01;;;;;;;21.60;14.15;;;21.90;36.90;;;;;;7646514;22;82951;-64
2022/12/01 03:04:02;;;;;;;22.77;16.10;;;21.90;36.80;;;;;;7675973;22;83611;-64
2022/12/01 03:07:03;;;;;;;21.25;14.18;;;21.90;36.90;;;;;;7672202;22;82945;-63
2022/12/01 03:10:03;;;;;;;20.10;14.43;;;21.90;36.80;;;;;;7676136;22;83360;-64
2022/12/01 03:13:03;;;;;;;19.42;14.20;;;21.90;36.80;;;;;;7674893;22;82748;-63
2022/12/01 03:16:04;;;;;;;21.13;14.35;;;21.90;36.70;;;;;;7675088;22;83597;-63
2022/12/01 03:19:04;;;;;;;19.83;14.45;;;21.90;36.80;;;;;;7671531;22;82765;-62
2022/12/01 03:22:05;;;;;;;21.98;15.30;;;21.90;36.80;;;;;;7675783;22;83484;-62
2022/12/01 03:25:05;;;;;;;19.95;14.07;;;21.90;36.80;;;;;;7674720;22;82974;-62
2022/12/01 03:28:06;;;;;;;21.13;14.65;;;21.90;36.90;;;;;;7674767;22;83515;-62
2022/12/01 03:31:07;;;;;;;22.73;14.90;;;21.90;36.80;;;;;;7670793;22;83817;-64
2022/12/01 03:34:07;;;;;;;22.83;14.68;;;21.90;36.80;;;;;;7675648;22;83311;-62
2022/12/01 03:37:08;;;;;;;20.95;14.45;;;21.90;36.90;;;;;;7672547;22;83078;-62
2022/12/01 03:40:08;;;;;;;20.65;13.25;;;21.90;36.90;;;;;;7674868;22;84539;-63
2022/12/01 03:43:09;;;;;;;21.98;15.30;;;21.80;36.80;;;;;;7672597;22;82794;-63
2022/12/01 03:46:09;;;;;;;20.15;13.20;;;21.80;36.90;;;;;;7672247;22;83671;-64
2022/12/01 03:49:10;;;;;;;17.83;13.45;;;21.80;36.90;;;;;;7673485;22;85284;-63
2022/12/01 03:52:10;;;;;;;18.80;13.60;;;21.80;36.80;;;;;;7669734;22;82756;-63
2022/12/01 03:55:11;;;;;;;19.10;13.43;;;21.90;37.00;;;;;;7673736;22;83569;-63
2022/12/01 03:58:11;;;;;;;17.13;12.20;;;21.80;36.90;;;;;;7675888;22;83257;-64
2022/12/01 04:01:12;;;;;;;19.67;12.98;;;21.80;36.90;;;;;;7672794;22;83230;-65
2022/12/01 04:04:12;;;;;;;17.83;12.18;;;21.80;36.90;;;;;;7673926;22;82993;-64
2022/12/01 04:07:13;;;;;;;17.70;11.65;;;21.80;36.90;;;;;;7672833;22;83470;-63
2022/12/01 04:10:14;;;;;;;18.42;12.25;;;21.80;36.90;;;;;;7674149;22;83666;-63
2022/12/01 04:13:32;;;;;;;17.15;11.48;;;21.80;36.90;;;;;;7675489;22;83647;-63
2022/12/01 04:16:33;;;;;;;15.55;11.02;;;21.80;36.90;;;;;;7670204;22;84333;-63
2022/12/01 04:19:33;;;;;;;18.13;12.52;;;21.90;36.80;;;;;;7676692;22;83935;-64
2022/12/01 04:22:34;;;;;;;16.02;11.23;;;21.90;36.40;;;;;;7672404;22;83489;-64
2022/12/01 04:25:34;;;;;;;15.57;10.73;;;22.00;36.20;;;;;;7671566;22;82999;-64
2022/12/01 04:28:35;;;;;;;13.75;10.05;;;22.00;36.30;;;;;;7674671;22;83950;-62
2022/12/01 04:31:35;;;;;;;14.43;9.85;;;22.00;36.30;;;;;;7671051;22;83603;-63
2022/12/01 04:34:36;;;;;;;16.67;10.48;;;22.10;36.20;;;;;;7678255;22;82714;-63
2022/12/01 04:37:36;;;;;;;17.83;10.07;;;22.20;36.10;;;;;;7671497;22;82617;-61
2022/12/01 04:40:37;;;;;;;13.15;9.40;;;22.20;36.00;;;;;;7672679;22;83214;-62
2022/12/01 04:43:37;;;;;;;12.65;8.63;;;22.30;36.10;;;;;;7678406;22;82838;-62
2022/12/01 04:46:38;;;;;;;11.75;8.52;;;22.30;36.00;;;;;;7676657;22;80463;-63
2022/12/01 04:49:38;;;;;;;13.38;8.80;;;22.40;36.10;;;;;;7676926;22;81009;-61
2022/12/01 04:52:39;;;;;;;11.75;8.70;;;22.40;36.10;;;;;;7672365;22;80556;-63
2022/12/01 04:55:39;;;;;;;11.50;8.52;;;22.40;36.00;;;;;;7676692;22;80322;-65
2022/12/01 04:58:40;;;;;;;14.45;8.77;;;22.50;36.30;;;;;;7677343;22;80986;-65
2022/12/01 05:01:40;;;;;;;12.93;9.15;;;22.50;36.20;;;;;;7678044;22;81195;-65
2022/12/01 05:04:46;;;;;;;11.05;8.90;;;22.60;36.00;;;;;;7677088;22;80774;-68
2022/12/01 05:07:47;;;;;;;12.85;7.53;;;22.60;36.10;;;;;;7677009;22;80547;-67
2022/12/01 05:10:47;;;;;;;29.73;8.48;;;22.60;36.70;;;;;;7678951;22;80611;-67
2022/12/01 05:13:48;;;;;;;12.27;8.18;;;22.70;37.20;;;;;;7675932;22;80466;-63
2022/12/01 05:16:50;;;;;;;11.70;7.78;;;22.70;37.20;;;;;;7677867;22;80197;-65
2022/12/01 05:23:09;;;;;;;10.30;7.35;;;22.80;37.40;;;;;;7676351;22;80410;-64
2022/12/01 05:26:09;;;;;;;12.57;7.25;;;22.80;37.50;;;;;;7675809;22;80817;-62
2022/12/01 05:29:10;;;;;;;11.30;7.28;;;22.80;38.20;;;;;;7678874;22;80810;-64
2022/12/01 05:32:10;;;;;;;9.80;7.65;;;22.80;37.70;;;;;;7646943;22;80542;-63
2022/12/01 05:35:11;;;;;;;9.80;7.72;;;22.80;37.80;;;;;;7670590;22;81211;-65
2022/12/01 05:38:12;;;;;;;8.55;7.35;;;22.90;38.00;;;;;;7672217;22;80307;-57
2022/12/01 05:41:12;;;;;;;8.80;7.13;;;22.90;38.10;;;;;;7672805;22;80830;-58
2022/12/01 05:44:13;;;;;;;9.65;7.63;;;22.90;38.20;;;;;;7675230;22;82522;-58
2022/12/01 05:47:13;;;;;;;9.73;7.40;;;22.90;38.00;;;;;;7670189;22;82730;-57
2022/12/01 05:50:14;;;;;;;11.65;7.13;;;22.90;37.90;;;;;;7646021;22;83375;-57
2022/12/01 05:53:14;;;;;;;9.43;7.40;;;23.00;37.80;;;;;;7671372;22;80325;-57
2022/12/01 05:56:15;;;;;;;17.05;8.32;;;23.00;37.60;;;;;;7645727;22;81507;-61
2022/12/01 05:59:15;;;;;;;10.27;7.72;;;23.00;37.40;;;;;;7676314;22;80712;-64
2022/12/01 06:02:16;;;;;;;10.35;7.90;;;23.00;37.30;;;;;;7676229;22;80805;-59
2022/12/01 06:05:16;;;;;;;10.45;7.50;;;23.00;37.20;;;;;;7677498;22;81796;-63
2022/12/01 06:08:17;;;;;;;10.05;7.72;;;23.00;37.00;;;;;;7677388;22;80469;-62
2022/12/01 06:11:17;;;;;;;11.55;8.10;;;23.00;36.90;;;;;;7675848;22;81620;-59
2022/12/01 06:14:18;;;;;;;12.35;8.43;;;23.00;36.80;;;;;;7678321;22;80846;-65
2022/12/01 06:17:18;;;;;;;9.93;7.88;;;23.00;36.70;;;;;;7675610;22;80976;-63
2022/12/01 06:20:19;;;;;;;14.07;7.30;;;22.90;36.80;;;;;;7640956;22;85240;-65
2022/12/01 06:23:19;;;;;;;12.07;8.85;;;22.90;36.80;;;;;;7640845;22;80919;-63
2022/12/01 06:26:20;;;;;;;10.10;7.60;;;22.90;36.80;;;;;;7638652;22;80007;-66
2022/12/01 06:29:20;;;;;;;9.20;7.43;;;22.90;36.70;;;;;;7637840;22;80394;-67
2022/12/01 06:32:21;;;;;;;10.98;7.68;;;22.80;36.70;;;;;;7639710;22;81626;-65
2022/12/01 06:35:21;;;;;;;9.93;7.90;;;22.80;36.70;;;;;;7638085;22;80726;-64
2022/12/01 06:38:22;;;;;;;12.18;7.72;;;22.80;36.70;;;;;;7667333;22;80609;-64
2022/12/01 06:41:22;;;;;;;10.85;7.20;;;22.70;36.90;;;;;;7714427;22;80312;-64
2022/12/01 06:44:23;;;;;;;9.70;7.68;;;22.70;36.90;;;;;;7712825;22;81475;-63
2022/12/01 06:47:23;;;;;;;13.38;7.90;;;22.70;37.00;;;;;;7711595;22;81132;-63
2022/12/01 06:50:24;;;;;;;9.00;7.38;;;22.70;36.90;;;;;;7712030;22;81648;-66
2022/12/01 06:53:26;;;;;;;11.57;6.90;;;22.70;37.00;;;;;;7714218;22;81198;-65
2022/12/01 06:56:26;;;;;;;9.48;7.28;;;22.60;36.90;;;;;;7715463;22;80884;-65
2022/12/01 06:59:27;;;;;;;10.05;7.53;;;22.60;36.90;;;;;;7714162;22;80542;-66
2022/12/01 07:02:27;;;;;;;7.55;6.72;;;22.60;37.00;;;;;;7716402;22;80822;-65
2022/12/01 07:05:28;;;;;;;9.20;7.50;;;22.60;37.30;;;;;;7715872;22;81213;-66
2022/12/01 07:08:28;;;;;;;9.73;7.43;;;22.50;37.10;;;;;;7717002;22;87633;-67
2022/12/01 07:11:31;;;;;;;10.55;7.10;;;22.50;37.20;;;;;;7716109;22;80509;-65
2022/12/01 07:14:31;;;;;;;10.15;7.45;;;22.40;37.20;;;;;;7717501;22;81255;-66
2022/12/01 07:17:32;;;;;;;9.10;7.10;;;22.40;37.00;;;;;;7689169;22;83899;-66
2022/12/01 07:20:32;;;;;;;10.38;7.93;;;22.40;37.20;;;;;;7718508;22;81722;-66
2022/12/01 07:23:32;;;;;;;11.73;7.85;;;22.40;37.20;;;;;;7716733;22;80448;-66
2022/12/01 07:26:33;;;;;;;7.65;6.35;;;22.40;37.20;;;;;;7717022;22;80898;-65
2022/12/01 07:29:34;;;;;;;9.60;7.60;;;22.40;37.30;;;;;;7717134;22;79956;-59
2022/12/01 07:32:34;;;;;;;8.55;7.45;;;22.30;37.20;;;;;;7717154;22;80621;-59
2022/12/01 07:35:35;;;;;;;9.52;7.43;;;22.30;37.20;;;;;;7714585;22;80454;-59
2022/12/01 07:38:36;;;;;;;9.93;7.75;;;22.30;37.20;;;;;;7716941;22;80725;-57
2022/12/01 07:41:36;;;;;;;10.23;7.07;;;22.30;37.30;;;;;;7717120;22;80603;-60
2022/12/01 07:44:37;;;;;;;11.27;7.55;;;22.20;37.10;;;;;;7717764;22;80663;-59
2022/12/01 07:47:37;;;;;;;10.45;7.35;;;22.20;37.20;;;;;;7718038;22;80589;-60
2022/12/01 07:50:38;;;;;;;10.10;7.60;;;22.20;37.10;;;;;;7717454;22;80248;-60
2022/12/01 07:53:38;;;;;;;9.57;7.47;;;22.20;37.10;;;;;;7716842;22;82604;-60
2022/12/01 07:56:39;;;;;;;9.43;7.63;;;22.20;36.90;;;;;;7717078;22;80299;-60
2022/12/01 07:59:39;;;;;;;10.55;8.00;;;22.20;36.90;;;;;;7714429;22;80263;-59
2022/12/01 08:02:40;;;;;;;9.70;7.43;;;22.20;36.90;;;;;;7716184;22;80382;-60
2022/12/01 08:05:40;;;;;;;10.85;7.35;;;22.10;36.90;;;;;;7716477;22;80383;-61
2022/12/01 08:08:41;;;;;;;10.25;7.93;;;22.10;37.00;;;;;;7689556;22;81321;-60
2022/12/01 08:11:41;;;;;;;9.02;7.35;;;22.10;37.00;;;;;;7716810;22;81364;-60
2022/12/01 08:14:42;;;;;;;8.63;7.10;;;22.10;37.00;;;;;;7716379;22;80238;-61
2022/12/01 08:17:42;;;;;;;9.75;7.32;;;22.10;37.00;;;;;;7716547;22;80617;-62
2022/12/01 08:20:43;;;;;;;10.88;6.30;;;22.10;37.10;;;;;;7715618;22;81129;-58
2022/12/01 08:23:43;;;;;;;7.70;6.72;;;22.10;37.20;;;;;;7716917;22;87656;-59
2022/12/01 08:26:44;;;;;;;9.52;7.38;;;22.10;37.30;;;;;;7717549;22;80482;-60
2022/12/01 08:29:44;;;;;;;10.25;7.18;;;22.10;37.40;;;;;;7715239;22;81131;-60
2022/12/01 08:32:45;;;;;;;9.00;6.55;;;22.10;37.00;;;;;;7718161;22;80263;-60
2022/12/01 08:35:45;;;;;;;8.10;6.82;;;22.10;37.00;;;;;;7716299;22;82183;-60
2022/12/01 08:38:46;;;;;;;9.35;7.05;;;22.10;36.80;;;;;;7714341;22;81195;-60
2022/12/01 08:41:46;;;;;;;8.40;6.72;;;22.20;36.50;;;;;;7716892;22;80896;-60
2022/12/01 08:44:47;;;;;;;10.20;7.45;;;22.20;36.50;;;;;;7689143;22;83446;-60
2022/12/01 08:47:47;;;;;;;14.85;7.10;;;22.30;36.50;;;;;;7714786;22;80962;-60
2022/12/01 08:50:48;;;;;;;7.60;6.45;;;22.30;36.50;;;;;;7716050;22;81141;-60
2022/12/01 08:53:48;;;;;;;10.13;6.95;;;22.30;36.40;;;;;;7716034;22;80806;-60
2022/12/01 08:56:48;;;;;;;7.68;6.35;;;22.30;36.30;;;;;;7715787;22;80461;-60
2022/12/01 08:59:49;;;;;;;7.50;6.07;;;22.40;36.30;;;;;;7716530;22;81504;-59
2022/12/01 09:02:49;;;;;;;8.07;6.65;;;22.40;36.30;;;;;;7716733;22;80416;-59
2022/12/01 09:05:50;;;;;;;8.23;6.85;;;22.50;36.30;;;;;;7716043;22;80668;-59
2022/12/01 09:08:50;;;;;;;8.25;6.22;;;22.50;36.30;;;;;;7716201;22;81831;-59
2022/12/01 09:11:51;;;;;;;11.23;6.40;;;22.50;36.30;;;;;;7715914;22;80501;-59
2022/12/01 09:14:51;;;;;;;8.48;6.75;;;22.50;36.20;;;;;;7717088;22;81748;-59
2022/12/01 09:17:52;;;;;;;8.52;6.53;;;22.50;36.20;;;;;;7714891;22;81065;-64
2022/12/01 09:20:52;;;;;;;7.82;6.60;;;22.60;36.20;;;;;;7716857;22;80840;-64
2022/12/01 09:23:53;;;;;;;10.02;7.22;;;22.60;36.10;;;;;;7713916;22;80724;-64
2022/12/01 09:26:53;;;;;;;7.47;5.78;;;22.60;36.20;;;;;;7716087;22;80982;-64
2022/12/01 09:29:54;;;;;;;9.07;7.50;;;22.60;36.10;;;;;;7714732;22;80837;-64
2022/12/01 09:32:54;;;;;;;7.72;6.53;;;22.60;36.10;;;;;;7718065;22;79972;-64
2022/12/01 09:35:55;;;;;;;9.38;7.13;;;22.60;36.10;;;;;;7715779;22;80421;-64
2022/12/01 09:38:55;;;;;;;7.38;6.68;;;22.60;36.10;;;;;;7714526;22;80792;-64
2022/12/01 09:41:56;;;;;;;10.32;7.68;;;22.70;36.20;;;;;;7713008;22;80388;-64
2022/12/01 09:44:57;;;;;;;8.20;6.47;;;22.70;36.10;;;;;;7715220;22;81453;-65
2022/12/01 09:47:57;;;;;;;8.75;6.88;;;22.70;36.00;;;;;;7718168;22;80559;-65
2022/12/01 09:50:58;;;;;;;10.52;7.68;;;22.70;36.00;;;;;;7716617;22;80945;-65
2022/12/01 09:53:58;;;;;;;7.75;6.35;;;22.70;36.00;;;;;;7713742;22;81756;-60
2022/12/01 09:56:59;;;;;;;7.93;6.75;;;22.70;36.00;;;;;;7710859;22;80872;-60
2022/12/01 09:59:59;;;;;;;10.55;7.15;;;22.70;36.00;;;;;;7716922;22;80267;-60
2022/12/01 10:03:00;;;;;;;8.68;7.13;;;22.70;35.90;;;;;;7714979;22;80441;-60
2022/12/01 10:06:00;;;;;;;8.90;7.20;;;22.70;36.00;;;;;;7717049;22;80530;-60
2022/12/01 10:09:01;;;;;;;9.05;7.07;;;22.70;35.90;;;;;;7716006;22;81211;-61
2022/12/01 10:12:01;;;;;;;9.50;7.55;;;22.70;36.60;;;;;;7705693;22;80293;-60
2022/12/01 10:15:02;;;;;;;9.38;7.57;;;22.70;36.20;;;;;;7712559;22;81535;-62
2022/12/01 10:18:02;;;;;;;10.43;7.65;;;22.70;36.10;;;;;;7716771;22;81796;-61
2022/12/01 10:21:03;;;;;;;11.25;7.18;;;22.70;36.20;;;;;;7721298;22;80438;-61
2022/12/01 10:24:04;;;;;;;10.65;7.60;;;22.70;36.30;;;;;;7718543;22;81130;-59
2022/12/01 10:27:04;;;;;;;16.98;8.15;;;22.80;36.30;;;;;;7716947;22;80030;-61
2022/12/01 10:30:05;;;;;;;11.15;7.20;;;22.70;36.30;;;;;;7717937;22;80043;-60
2022/12/01 10:33:06;;;;;;;9.98;7.72;;;22.70;36.40;;;;;;7709978;22;81001;-69
2022/12/01 10:36:06;;;;;;;10.27;8.05;;;22.70;36.50;;;;;;7717898;22;81347;-70
2022/12/01 10:39:07;;;;;;;9.40;7.55;;;22.70;36.60;;;;;;7718523;22;80760;-72
2022/12/01 10:42:07;;;;;;;14.95;7.97;;;22.70;36.70;;;;;;7714146;22;81667;-68
2022/12/01 10:45:08;;;;;;;9.77;7.88;;;22.70;36.80;;;;;;7714373;22;80844;-70
2022/12/01 10:48:08;;;;;;;10.30;7.60;;;22.60;36.60;;;;;;7720672;22;82738;-71
2022/12/01 10:51:09;;;;;;;11.07;8.38;;;22.60;36.60;;;;;;7718108;22;80732;-70
2022/12/01 10:54:10;;;;;;;15.52;9.73;;;22.60;36.60;;;;;;7717898;22;80418;-69
2022/12/01 10:57:11;;;;;;;11.77;8.77;;;22.60;36.70;;;;;;7713248;22;80356;-68
2022/12/01 11:00:11;;;;;;;11.40;8.50;;;22.60;36.70;;;;;;7719410;22;81266;-67
2022/12/01 11:03:12;;;;;;;14.30;9.20;;;22.60;36.80;;;;;;7714711;22;80867;-68
2022/12/01 11:06:12;;;;;;;15.93;9.43;;;22.50;36.70;;;;;;7716362;22;81092;-70
2022/12/01 11:09:13;;;;;;;12.02;8.93;;;22.50;36.70;;;;;;7716321;22;80523;-60
2022/12/01 11:12:13;;;;;;;13.38;8.77;;;22.50;36.90;;;;;;7712804;22;79989;-58
2022/12/01 11:15:14;;;;;;;11.70;8.88;;;22.50;36.80;;;;;;7719010;22;80524;-59
2022/12/01 11:18:14;;;;;;;12.10;8.90;;;22.40;36.70;;;;;;7707119;22;81090;-59
2022/12/01 11:21:15;;;;;;;14.90;9.63;;;22.40;36.80;;;;;;7712836;22;80466;-59
2022/12/01 11:24:16;;;;;;;11.50;9.32;;;22.40;36.80;;;;;;7710916;22;80605;-57
2022/12/01 11:27:16;;;;;;;11.98;9.48;;;22.40;36.80;;;;;;7712104;22;80517;-58
2022/12/01 11:30:17;;;;;;;12.80;10.25;;;22.40;36.80;;;;;;7719015;22;80571;-59
2022/12/01 11:33:17;;;;;;;14.65;9.35;;;22.40;36.80;;;;;;7713308;22;83329;-60
2022/12/01 11:36:17;;;;;;;13.35;9.60;;;22.40;37.00;;;;;;7721050;22;82953;-58
2022/12/01 11:39:18;;;;;;;15.75;9.60;;;22.30;36.80;;;;;;7713373;22;80453;-59
2022/12/01 11:42:18;;;;;;;19.48;10.50;;;22.30;36.60;;;;;;7718563;22;81055;-59
2022/12/01 11:45:19;;;;;;;12.70;9.57;;;22.30;36.60;;;;;;7713780;22;83129;-59
2022/12/01 11:48:19;;;;;;;14.05;10.60;;;22.30;36.50;;;;;;7720348;22;82016;-60
2022/12/01 11:51:20;;;;;;;13.05;10.20;;;22.30;36.40;;;;;;7713955;22;83234;-59
2022/12/01 11:54:20;;;;;;;14.38;10.90;;;22.30;36.40;;;;;;7708375;22;83358;-58
2022/12/01 11:57:21;;;;;;;16.92;11.15;;;22.30;36.40;;;;;;7716292;22;83564;-59
2022/12/01 12:00:21;;;;;;;17.67;11.10;;;22.30;36.50;;;;;;7712739;22;83554;-60
2022/12/01 12:03:22;;;;;;;19.10;11.98;;;22.20;36.80;;;;;;7715517;22;83455;-59
2022/12/01 12:06:23;;;;;;;23.48;12.18;;;22.30;37.30;;;;;;7713405;22;83062;-60
2022/12/01 12:09:23;;;;;;;25.88;12.30;;;22.20;37.70;;;;;;7710433;22;82989;-60
2022/12/01 12:12:24;;;;;;;17.23;10.93;;;22.30;38.00;;;;;;7713423;22;83306;-59
2022/12/01 12:15:24;;;;;;;25.45;11.98;;;22.30;38.50;;;;;;7709291;22;83164;-59
2022/12/01 12:18:25;;;;;;;17.73;10.82;;;22.30;38.90;;;;;;7710052;22;83077;-59
2022/12/01 12:21:25;;;;;;;16.90;11.57;;;22.30;39.40;;;;;;7715093;22;83369;-58
2022/12/01 12:24:26;;;;;;;25.05;12.27;;;22.30;39.80;;;;;;7710980;22;84357;-60
2022/12/01 12:27:27;;;;;;;16.88;11.23;;;22.30;40.80;;;;;;7712018;22;84161;-59
2022/12/01 12:30:28;;;;;;;16.77;11.57;;;22.30;41.30;;;;;;7713631;22;82896;-59
2022/12/01 12:33:28;;;;;;;16.27;10.65;;;22.30;42.00;;;;;;7713590;22;83803;-58
2022/12/01 12:36:29;;;;;;;17.70;11.25;;;22.30;42.90;;;;;;7713248;22;83396;-60
2022/12/01 12:39:29;;;;;;;16.20;11.02;;;22.40;41.20;;;;;;7710774;22;83047;-56
2022/12/01 12:42:30;;;;;;;14.85;11.43;;;22.40;40.50;;;;;;7714547;22;83268;-56
2022/12/01 12:45:30;;;;;;;19.58;11.85;;;22.40;40.10;;;;;;7714830;22;83695;-57
2022/12/01 12:48:31;;;;;;;17.05;11.68;;;22.50;40.00;;;;;;7712066;22;83933;-57
2022/12/01 12:51:31;;;;;;;19.40;11.90;;;22.60;39.60;;;;;;7711639;22;84196;-59
2022/12/01 12:54:32;;;;;;;18.67;11.43;;;22.60;39.40;;;;;;7714553;22;83572;-59
2022/12/01 12:57:32;;;;;;;16.85;11.23;;;22.60;39.40;;;;;;7713704;22;82919;-61
2022/12/01 13:00:33;;;;;;;14.95;11.63;;;22.60;39.30;;;;;;7714652;22;83316;-61
2022/12/01 13:03:33;;;;;;;17.40;11.57;;;22.60;39.40;;;;;;7712258;22;82894;-60
2022/12/01 13:06:34;;;;;;;14.65;11.00;;;22.70;39.40;;;;;;7709932;22;84406;-61
2022/12/01 13:09:34;;;;;;;15.20;11.20;;;22.70;39.40;;;;;;7714343;22;83169;-60
2022/12/01 13:12:35;;;;;;;17.15;10.73;;;22.80;39.30;;;;;;7714289;22;84881;-59
2022/12/01 13:15:35;;;;;;;14.82;10.18;;;22.70;39.00;;;;;;7711042;22;83744;-59
2022/12/01 13:18:36;;;;;;;13.65;10.57;;;22.70;38.80;;;;;;7714836;22;83219;-58
2022/12/01 13:21:36;;;;;;;16.10;11.23;;;22.80;38.70;;;;;;7710854;22;84181;-60
2022/12/01 13:24:37;;;;;;;15.80;11.20;;;22.80;38.60;;;;;;7714611;22;83806;-60
2022/12/01 13:27:37;;;;;;;16.23;11.18;;;22.80;38.40;;;;;;7712162;22;83060;-58
2022/12/01 13:30:38;;;;;;;17.38;11.23;;;22.80;38.10;;;;;;7713223;22;83232;-58
2022/12/01 13:33:39;;;;;;;14.98;10.63;;;22.80;38.10;;;;;;7709541;22;82986;-59
2022/12/01 13:36:39;;;;;;;13.73;10.30;;;22.80;38.00;;;;;;7708793;22;83393;-67
2022/12/01 13:39:40;;;;;;;14.32;9.90;;;22.90;38.00;;;;;;7710817;22;83134;-67
2022/12/01 13:42:40;;;;;;;16.23;11.27;;;22.90;37.90;;;;;;7715756;22;83191;-66
2022/12/01 13:45:41;;;;;;;13.73;10.93;;;22.90;37.70;;;;;;7712600;22;83055;-66
2022/12/01 13:48:41;;;;;;;14.73;11.48;;;22.90;37.80;;;;;;7713414;22;83397;-66
2022/12/01 13:51:42;;;;;;;16.70;10.68;;;22.90;37.50;;;;;;7704591;22;84023;-66
2022/12/01 13:54:42;;;;;;;18.15;12.18;;;23.00;37.50;;;;;;7687189;22;84155;-59
2022/12/01 13:57:43;;;;;;;15.27;11.50;;;23.00;37.50;;;;;;7710332;22;83868;-59
2022/12/01 14:00:43;;;;;;;15.25;11.30;;;22.90;37.70;;;;;;7712013;22;83137;-59
2022/12/01 14:03:44;;;;;;;16.17;11.70;;;22.90;37.20;;;;;;7707653;22;83292;-59
2022/12/01 14:06:48;;;;;;;15.80;11.15;;;23.00;37.90;;;;;;7711688;22;83386;-58
2022/12/01 14:09:48;;;;;;;16.85;11.35;;;23.00;37.30;;;;;;7682900;22;83745;-59
2022/12/01 14:12:49;;;;;;;15.90;12.32;;;23.00;37.10;;;;;;7706664;22;82897;-59
2022/12/01 14:15:49;;;;;;;13.95;10.90;;;23.00;37.20;;;;;;7707299;22;83598;-58
2022/12/01 14:18:50;;;;;;;14.80;11.30;;;23.10;37.10;;;;;;7708617;22;83464;-57
2022/12/01 14:21:51;;;;;;;17.00;11.82;;;23.00;37.00;;;;;;7706787;22;83544;-59
2022/12/01 14:24:51;;;;;;;13.82;10.90;;;23.00;36.90;;;;;;7706849;22;82912;-59
2022/12/01 14:27:52;;;;;;;13.05;10.23;;;23.00;37.00;;;;;;7709650;22;83227;-59
2022/12/01 14:30:53;;;;;;;14.05;10.38;;;22.90;37.00;;;;;;7711095;22;82988;-61
2022/12/01 14:33:53;;;;;;;15.60;10.35;;;23.00;37.10;;;;;;7711789;22;83181;-60
2022/12/01 14:36:54;;;;;;;13.18;10.18;;;23.00;37.00;;;;;;7713823;22;83140;-60
2022/12/01 14:39:55;;;;;;;13.85;10.15;;;22.90;37.20;;;;;;7708008;22;83176;-61
2022/12/01 14:46:14;;;;;;;18.92;10.25;;;22.90;37.20;;;;;;7712766;22;83239;-62
2022/12/01 14:49:15;;;;;;;13.55;10.13;;;22.90;37.30;;;;;;7713428;22;83673;-64
2022/12/01 14:52:15;;;;;;;13.85;10.07;;;22.80;37.70;;;;;;7710203;22;83271;-65
2022/12/01 14:55:16;;;;;;;16.23;8.98;;;22.80;38.10;;;;;;7713059;22;83741;-65
2022/12/01 14:58:16;;;;;;;13.30;9.77;;;22.80;38.20;;;;;;7718733;22;82887;-65
2022/12/01 15:01:17;;;;;;;15.63;10.13;;;22.80;38.60;;;;;;7716064;22;80966;-64
2022/12/01 15:04:18;;;;;;;13.50;9.45;;;22.80;38.80;;;;;;7712156;22;82669;-67
2022/12/01 15:07:18;;;;;;;11.30;8.38;;;22.80;38.70;;;;;;7717170;22;83075;-61
2022/12/01 15:10:19;;;;;;;15.35;9.05;;;22.80;38.90;;;;;;7716886;22;80506;-62
2022/12/01 15:13:19;;;;;;;12.10;9.02;;;22.80;38.90;;;;;;7716488;22;80998;-62
2022/12/01 15:16:20;;;;;;;15.73;9.50;;;22.80;38.50;;;;;;7714948;22;80326;-61
2022/12/01 15:19:21;;;;;;;10.80;8.85;;;22.80;38.50;;;;;;7716689;22;80572;-62
2022/12/01 15:22:22;;;;;;;11.48;7.80;;;22.80;38.60;;;;;;7716206;22;80660;-60
2022/12/01 15:25:23;;;;;;;11.38;9.13;;;22.70;38.50;;;;;;7689141;22;83996;-58
2022/12/01 15:28:23;;;;;;;8.95;7.90;;;22.70;38.50;;;;;;7715535;22;81117;-58
2022/12/01 15:31:24;;;;;;;11.52;8.55;;;22.80;38.80;;;;;;7717056;22;80391;-59